Time;durP1;ratioP1;P1;durP2;ratioP2;P2;SDS_P1;SDS_P2;PMS_P1;PMS_P2;Temp;Humidity;BMP_temperature;BMP_pressure;BME280_temperature;BME280_humidity;BME280_pressure;Samples;Min_cycle;Max_cycle;Signal;HPM_P1;HPM_P2
2023/11/16 00:00:11;;;;;;;1.63;1.63;;;;;;;;;;6202825;28;20313;-71
2023/11/16 00:03:17;;;;;;;1.90;1.90;;;;;;;;;;6204525;28;20306;-71
2023/11/16 00:06:21;;;;;;;1.70;1.70;;;;;;;;;;6233758;28;20469;-70
2023/11/16 00:09:27;;;;;;;2.17;2.17;;;;;;;;;;6233057;28;20299;-71
2023/11/16 00:12:30;;;;;;;1.87;1.73;;;;;;;;;;6211735;28;20445;-73
2023/11/16 00:15:35;;;;;;;2.17;2.07;;;;;;;;;;6200908;28;20295;-70
2023/11/16 00:18:41;;;;;;;2.40;2.30;;;;;;;;;;6209123;28;20311;-71
2023/11/16 00:21:45;;;;;;;1.90;1.90;;;;;;;;;;6209446;28;20484;-71
2023/11/16 00:24:49;;;;;;;1.80;1.80;;;;;;;;;;6208804;28;20461;-70
2023/11/16 00:27:52;;;;;;;2.30;2.20;;;;;;;;;;6208545;28;20295;-71
2023/11/16 00:30:56;;;;;;;2.10;2.10;;;;;;;;;;6184077;28;20291;-72
2023/11/16 00:34:02;;;;;;;2.60;2.40;;;;;;;;;;6184240;28;20306;-71
2023/11/16 00:37:06;;;;;;;2.40;2.30;;;;;;;;;;6183811;28;20610;-76
2023/11/16 00:40:13;;;;;;;2.43;2.33;;;;;;;;;;6166378;28;20341;-72
2023/11/16 00:43:16;;;;;;;2.50;2.40;;;;;;;;;;6208270;28;20296;-72
2023/11/16 00:46:22;;;;;;;2.67;2.60;;;;;;;;;;6191494;28;20480;-71
2023/11/16 00:49:27;;;;;;;2.67;2.57;;;;;;;;;;6180993;28;20793;-70
2023/11/16 00:52:33;;;;;;;2.67;2.57;;;;;;;;;;6190472;28;20602;-72
2023/11/16 00:55:37;;;;;;;2.53;2.43;;;;;;;;;;6208904;28;20314;-71
2023/11/16 00:58:44;;;;;;;2.83;2.73;;;;;;;;;;6206536;28;20494;-70
2023/11/16 01:01:48;;;;;;;2.57;2.43;;;;;;;;;;6178430;28;20287;-71
2023/11/16 01:04:54;;;;;;;2.60;2.47;;;;;;;;;;6182251;28;20301;-70
2023/11/16 01:07:57;;;;;;;2.70;2.60;;;;;;;;;;6166198;28;20299;-73
2023/11/16 01:11:02;;;;;;;2.50;2.40;;;;;;;;;;6176477;28;20322;-71
2023/11/16 01:14:08;;;;;;;2.90;2.60;;;;;;;;;;6190139;28;20452;-72
2023/11/16 01:17:18;;;;;;;2.30;2.27;;;;;;;;;;6189938;28;20488;-72
2023/11/16 01:20:29;;;;;;;2.80;2.63;;;;;;;;;;6207234;28;20302;-70
2023/11/16 01:23:34;;;;;;;2.63;2.53;;;;;;;;;;6189536;28;20302;-70
2023/11/16 01:26:40;;;;;;;2.53;2.43;;;;;;;;;;6178862;28;20304;-72
2023/11/16 01:29:45;;;;;;;2.77;2.67;;;;;;;;;;6183226;28;20291;-71
2023/11/16 01:32:48;;;;;;;2.93;2.63;;;;;;;;;;6188799;28;20286;-72
2023/11/16 01:35:54;;;;;;;2.73;2.70;;;;;;;;;;6182017;28;20512;-71
2023/11/16 01:38:58;;;;;;;3.50;2.97;;;;;;;;;;6182951;28;20304;-72
2023/11/16 01:42:02;;;;;;;2.73;2.63;;;;;;;;;;6182072;28;20372;-71
2023/11/16 01:45:08;;;;;;;3.40;2.60;;;;;;;;;;6203539;28;20311;-71
2023/11/16 01:48:12;;;;;;;2.70;2.60;;;;;;;;;;6165536;28;20470;-70
2023/11/16 01:51:18;;;;;;;3.37;2.57;;;;;;;;;;6188774;28;20299;-70
2023/11/16 01:54:22;;;;;;;3.10;2.90;;;;;;;;;;6206524;28;20303;-71
2023/11/16 01:57:26;;;;;;;2.90;2.80;;;;;;;;;;6207226;28;20314;-70
2023/11/16 02:00:31;;;;;;;3.10;2.87;;;;;;;;;;6186954;28;20235;-71
2023/11/16 02:03:34;;;;;;;3.10;2.83;;;;;;;;;;6206413;28;20307;-71
2023/11/16 02:06:41;;;;;;;2.90;2.80;;;;;;;;;;6189742;28;20592;-73
2023/11/16 02:09:47;;;;;;;3.63;3.00;;;;;;;;;;6188942;28;20298;-70
2023/11/16 02:12:53;;;;;;;4.40;2.90;;;;;;;;;;6173129;28;20288;-72
2023/11/16 02:15:57;;;;;;;2.67;2.60;;;;;;;;;;6183093;28;20303;-70
2023/11/16 02:19:07;;;;;;;2.53;2.43;;;;;;;;;;6190100;28;20312;-71
2023/11/16 02:22:12;;;;;;;2.67;2.47;;;;;;;;;;6189811;28;20314;-70
2023/11/16 02:25:18;;;;;;;3.17;2.93;;;;;;;;;;6192697;28;20302;-70
2023/11/16 02:28:22;;;;;;;2.80;2.70;;;;;;;;;;6204232;28;20297;-71
2023/11/16 02:31:26;;;;;;;2.77;2.67;;;;;;;;;;6205200;28;20382;-70
2023/11/16 02:34:41;;;;;;;3.73;2.63;;;;;;;;;;6213636;28;20732;-71
2023/11/16 02:37:45;;;;;;;2.60;2.50;;;;;;;;;;6205983;28;20290;-71
2023/11/16 02:40:51;;;;;;;2.83;2.73;;;;;;;;;;6213813;28;20305;-72
2023/11/16 02:43:55;;;;;;;2.93;2.73;;;;;;;;;;6230138;28;20299;-71
2023/11/16 02:46:59;;;;;;;3.00;2.80;;;;;;;;;;6230269;28;20297;-71
2023/11/16 02:50:04;;;;;;;2.63;2.47;;;;;;;;;;6212172;28;20290;-70
2023/11/16 02:53:08;;;;;;;2.70;2.50;;;;;;;;;;6230443;28;20288;-71
2023/11/16 02:56:14;;;;;;;3.00;2.80;;;;;;;;;;6213833;28;20328;-71
2023/11/16 02:59:17;;;;;;;3.33;3.13;;;;;;;;;;6228175;28;20305;-71
2023/11/16 03:02:21;;;;;;;2.83;2.73;;;;;;;;;;6212633;28;20297;-72
2023/11/16 03:05:25;;;;;;;2.87;2.77;;;;;;;;;;6181463;28;20519;-71
2023/11/16 03:08:29;;;;;;;3.23;3.03;;;;;;;;;;6179681;28;20308;-71
2023/11/16 03:11:35;;;;;;;2.60;2.53;;;;;;;;;;6167760;28;20301;-72
2023/11/16 03:14:39;;;;;;;3.70;2.90;;;;;;;;;;6164301;28;20304;-72
2023/11/16 03:17:43;;;;;;;2.87;2.73;;;;;;;;;;6181168;28;20299;-70
2023/11/16 03:20:48;;;;;;;2.80;2.70;;;;;;;;;;6181236;28;20290;-72
2023/11/16 03:23:51;;;;;;;2.93;2.60;;;;;;;;;;6180755;28;20296;-70
2023/11/16 03:26:56;;;;;;;2.80;2.60;;;;;;;;;;6180932;28;20292;-70
2023/11/16 03:30:00;;;;;;;2.70;2.60;;;;;;;;;;6180972;28;20345;-70
2023/11/16 03:33:04;;;;;;;3.93;2.50;;;;;;;;;;6169057;28;20291;-71
2023/11/16 03:36:08;;;;;;;4.40;2.67;;;;;;;;;;6157181;28;20308;-70
2023/11/16 03:39:13;;;;;;;2.77;2.67;;;;;;;;;;6159289;28;20291;-70
2023/11/16 03:42:18;;;;;;;2.27;2.17;;;;;;;;;;6161918;28;20296;-70
2023/11/16 03:45:22;;;;;;;2.80;2.70;;;;;;;;;;6161386;28;20301;-70
2023/11/16 03:48:26;;;;;;;2.73;2.53;;;;;;;;;;6161567;28;20319;-70
2023/11/16 03:51:30;;;;;;;2.43;2.43;;;;;;;;;;6166489;28;20294;-71
2023/11/16 03:54:34;;;;;;;2.90;2.80;;;;;;;;;;6173567;28;20303;-71
2023/11/16 03:57:39;;;;;;;2.73;2.63;;;;;;;;;;6157935;28;20394;-71
2023/11/16 04:00:44;;;;;;;2.80;2.70;;;;;;;;;;6161450;28;20238;-71
2023/11/16 04:03:47;;;;;;;2.70;2.50;;;;;;;;;;6182959;28;20244;-71
2023/11/16 04:06:51;;;;;;;3.07;2.87;;;;;;;;;;6222250;28;20284;-71
2023/11/16 04:09:55;;;;;;;2.73;2.60;;;;;;;;;;6184795;28;20302;-71
2023/11/16 04:13:03;;;;;;;2.37;2.27;;;;;;;;;;6207893;28;20469;-70
2023/11/16 04:16:18;;;;;;;2.40;2.23;;;;;;;;;;6208209;28;20397;-71
2023/11/16 04:19:25;;;;;;;2.57;2.47;;;;;;;;;;6199678;28;20295;-72
2023/11/16 04:22:30;;;;;;;3.30;3.00;;;;;;;;;;6184244;28;20423;-71
2023/11/16 04:25:34;;;;;;;2.97;2.80;;;;;;;;;;6184839;28;20304;-71
2023/11/16 04:28:43;;;;;;;2.83;2.73;;;;;;;;;;6184697;28;20295;-72
2023/11/16 04:31:47;;;;;;;2.50;2.40;;;;;;;;;;6185027;28;20314;-71
2023/11/16 04:34:51;;;;;;;2.10;2.10;;;;;;;;;;6182123;28;20438;-71
2023/11/16 04:37:55;;;;;;;2.57;2.33;;;;;;;;;;6205268;28;20364;-71
2023/11/16 04:40:58;;;;;;;2.33;2.17;;;;;;;;;;6208857;28;20248;-72
2023/11/16 04:44:05;;;;;;;2.30;2.27;;;;;;;;;;6208289;28;20315;-71
2023/11/16 04:47:08;;;;;;;2.10;2.00;;;;;;;;;;6208736;28;20318;-72
2023/11/16 04:50:13;;;;;;;2.67;2.10;;;;;;;;;;6207166;28;20291;-70
2023/11/16 04:53:19;;;;;;;2.60;2.37;;;;;;;;;;6209113;28;20272;-71
2023/11/16 04:56:23;;;;;;;3.50;2.30;;;;;;;;;;6201777;28;20298;-72
2023/11/16 04:59:29;;;;;;;2.23;2.07;;;;;;;;;;6207270;28;20595;-70
2023/11/16 05:02:33;;;;;;;2.27;2.10;;;;;;;;;;6207912;28;20323;-69
2023/11/16 05:05:37;;;;;;;2.33;2.23;;;;;;;;;;6208360;28;20422;-70
2023/11/16 05:08:41;;;;;;;2.33;2.13;;;;;;;;;;6207576;28;20585;-70
2023/11/16 05:11:45;;;;;;;3.63;1.90;;;;;;;;;;6205671;28;20299;-70
2023/11/16 05:14:50;;;;;;;2.23;2.13;;;;;;;;;;6202127;28;20297;-71
2023/11/16 05:17:53;;;;;;;2.20;2.10;;;;;;;;;;6224077;28;20305;-70
2023/11/16 05:21:00;;;;;;;2.13;2.03;;;;;;;;;;6206949;28;20302;-72
2023/11/16 05:24:06;;;;;;;2.43;2.23;;;;;;;;;;6193128;28;20328;-71
2023/11/16 05:27:09;;;;;;;2.20;2.10;;;;;;;;;;6183819;28;20291;-72
2023/11/16 05:30:15;;;;;;;2.00;1.90;;;;;;;;;;6183083;28;20450;-71
2023/11/16 05:33:19;;;;;;;2.50;2.00;;;;;;;;;;6182946;28;20310;-70
2023/11/16 05:36:27;;;;;;;2.10;2.00;;;;;;;;;;6183588;28;20308;-72
2023/11/16 05:39:31;;;;;;;2.03;1.87;;;;;;;;;;6181686;28;20307;-71
2023/11/16 05:42:35;;;;;;;2.40;2.30;;;;;;;;;;6182828;28;20365;-72
2023/11/16 05:45:41;;;;;;;5.40;2.03;;;;;;;;;;6159525;28;20308;-71
2023/11/16 05:48:45;;;;;;;2.20;2.10;;;;;;;;;;6167779;28;20297;-71
2023/11/16 05:51:49;;;;;;;2.50;2.20;;;;;;;;;;6183144;28;20302;-71
2023/11/16 05:54:53;;;;;;;2.03;2.03;;;;;;;;;;6182723;28;20295;-70
2023/11/16 05:57:56;;;;;;;2.27;2.10;;;;;;;;;;6179916;28;20310;-72
2023/11/16 06:01:02;;;;;;;2.20;2.20;;;;;;;;;;6182986;28;20310;-71
2023/11/16 06:04:06;;;;;;;2.87;2.30;;;;;;;;;;6182373;28;20302;-71
2023/11/16 06:07:10;;;;;;;2.37;2.27;;;;;;;;;;6183035;28;20295;-70
2023/11/16 06:10:17;;;;;;;2.53;2.30;;;;;;;;;;6188450;28;20298;-71
2023/11/16 06:13:22;;;;;;;2.93;2.33;;;;;;;;;;6205821;28;20336;-71
2023/11/16 06:16:27;;;;;;;2.40;2.30;;;;;;;;;;6206549;28;20291;-72
2023/11/16 06:19:31;;;;;;;2.50;2.37;;;;;;;;;;6206086;28;20310;-71
2023/11/16 06:22:35;;;;;;;2.70;2.50;;;;;;;;;;6193237;28;20315;-72
2023/11/16 06:25:39;;;;;;;2.43;2.30;;;;;;;;;;6158565;28;20342;-72
2023/11/16 06:28:43;;;;;;;2.83;2.63;;;;;;;;;;6179936;28;20429;-72
2023/11/16 06:31:48;;;;;;;2.80;2.37;;;;;;;;;;6182705;28;20285;-71
2023/11/16 06:34:52;;;;;;;2.77;2.57;;;;;;;;;;6182073;28;20317;-72
2023/11/16 06:37:56;;;;;;;2.33;2.20;;;;;;;;;;6182228;28;20322;-70
2023/11/16 06:41:00;;;;;;;2.53;2.43;;;;;;;;;;6182441;28;20295;-71
2023/11/16 06:44:05;;;;;;;5.17;2.10;;;;;;;;;;6203452;28;20317;-71
2023/11/16 06:47:12;;;;;;;2.50;2.40;;;;;;;;;;6213221;28;20458;-70
2023/11/16 06:50:16;;;;;;;2.17;2.07;;;;;;;;;;6205850;28;20306;-70
2023/11/16 06:53:21;;;;;;;2.77;2.10;;;;;;;;;;6205610;28;20305;-71
2023/11/16 06:56:27;;;;;;;2.50;2.30;;;;;;;;;;6205023;28;20288;-72
2023/11/16 06:59:31;;;;;;;2.30;2.10;;;;;;;;;;6203904;28;20300;-72
2023/11/16 07:02:36;;;;;;;4.63;2.47;;;;;;;;;;6193841;28;20304;-72
2023/11/16 07:05:41;;;;;;;3.50;2.17;;;;;;;;;;6182613;28;20300;-71
2023/11/16 07:08:46;;;;;;;2.20;2.10;;;;;;;;;;6181262;28;20494;-71
2023/11/16 07:11:51;;;;;;;2.53;2.43;;;;;;;;;;6225267;28;20284;-72
2023/11/16 07:14:55;;;;;;;2.27;2.17;;;;;;;;;;6228925;28;20293;-71
2023/11/16 07:18:01;;;;;;;3.67;2.77;;;;;;;;;;6229593;28;20300;-73
2023/11/16 07:21:06;;;;;;;2.50;2.30;;;;;;;;;;6230444;28;20301;-72
2023/11/16 07:24:11;;;;;;;2.57;2.47;;;;;;;;;;6229614;28;20319;-71
2023/11/16 07:27:15;;;;;;;2.57;2.47;;;;;;;;;;6205130;28;20303;-71
2023/11/16 07:30:19;;;;;;;2.40;2.30;;;;;;;;;;6229783;28;20320;-71
2023/11/16 07:33:24;;;;;;;2.33;2.23;;;;;;;;;;6209286;28;20624;-73
2023/11/16 07:36:28;;;;;;;3.23;2.60;;;;;;;;;;6181269;28;20502;-70
2023/11/16 07:39:32;;;;;;;3.33;2.43;;;;;;;;;;6183689;28;20301;-72
2023/11/16 07:42:39;;;;;;;3.77;2.80;;;;;;;;;;6205404;28;20377;-73
2023/11/16 07:45:44;;;;;;;2.50;2.37;;;;;;;;;;6205732;28;20296;-71
2023/11/16 07:48:50;;;;;;;4.03;2.83;;;;;;;;;;6205347;28;20310;-72
2023/11/16 07:51:54;;;;;;;2.53;2.40;;;;;;;;;;6209063;28;20301;-71
2023/11/16 07:54:59;;;;;;;3.10;2.87;;;;;;;;;;6213673;28;20294;-71
2023/11/16 07:58:05;;;;;;;5.50;2.90;;;;;;;;;;6215839;28;20329;-71
2023/11/16 08:01:12;;;;;;;3.97;2.90;;;;;;;;;;6181779;28;20318;-72
2023/11/16 08:04:16;;;;;;;6.43;3.50;;;;;;;;;;6204484;28;20264;-72
2023/11/16 08:07:23;;;;;;;3.13;2.93;;;;;;;;;;6205525;28;20535;-71
2023/11/16 08:10:27;;;;;;;3.17;2.97;;;;;;;;;;6186519;28;20475;-72
2023/11/16 08:13:32;;;;;;;4.00;3.47;;;;;;;;;;6204373;28;20299;-72
2023/11/16 08:16:35;;;;;;;4.70;3.57;;;;;;;;;;6204945;28;20311;-72
2023/11/16 08:19:40;;;;;;;4.23;3.20;;;;;;;;;;6204586;28;20320;-72
2023/11/16 08:22:45;;;;;;;3.70;3.40;;;;;;;;;;6203748;28;20488;-73
2023/11/16 08:25:50;;;;;;;5.40;3.63;;;;;;;;;;6193767;28;20288;-72
2023/11/16 08:28:54;;;;;;;3.80;3.60;;;;;;;;;;6198000;28;20292;-71
2023/11/16 08:32:00;;;;;;;3.77;3.50;;;;;;;;;;6210120;28;20294;-73
2023/11/16 08:35:06;;;;;;;3.27;3.07;;;;;;;;;;6232361;28;20367;-72
2023/11/16 08:38:14;;;;;;;3.70;3.43;;;;;;;;;;6222032;28;20623;-72
2023/11/16 08:41:18;;;;;;;3.60;3.37;;;;;;;;;;6208826;28;20295;-71
2023/11/16 08:44:22;;;;;;;3.20;3.00;;;;;;;;;;6208393;28;20542;-71
2023/11/16 08:47:27;;;;;;;4.07;3.40;;;;;;;;;;6208887;28;20281;-71
2023/11/16 08:50:33;;;;;;;5.70;3.70;;;;;;;;;;6208592;28;20316;-71
2023/11/16 08:53:39;;;;;;;4.60;3.83;;;;;;;;;;6208660;28;20307;-71
2023/11/16 08:56:43;;;;;;;3.60;3.33;;;;;;;;;;6208860;28;20298;-70
2023/11/16 09:00:25;;;;;;;4.47;3.93;;;;;;;;;;6206758;28;20306;-70
2023/11/16 09:03:25;;;;;;;3.73;3.53;;;;;;;;;;6207171;28;20231;-73
2023/11/16 09:06:31;;;;;;;3.80;3.50;;;;;;;;;;6208237;28;20429;-71
2023/11/16 09:09:35;;;;;;;3.90;3.50;;;;;;;;;;6208868;28;20301;-72
2023/11/16 09:12:42;;;;;;;3.80;3.50;;;;;;;;;;6210630;28;20334;-70
2023/11/16 09:15:46;;;;;;;4.20;3.83;;;;;;;;;;6212877;28;20293;-72
2023/11/16 09:18:49;;;;;;;5.00;3.80;;;;;;;;;;6231209;28;20304;-72
2023/11/16 09:21:55;;;;;;;3.73;3.43;;;;;;;;;;6231907;28;20306;-72
2023/11/16 09:25:02;;;;;;;3.60;3.40;;;;;;;;;;6231337;28;20301;-71
2023/11/16 09:28:06;;;;;;;3.60;3.40;;;;;;;;;;6231554;28;20300;-73
2023/11/16 09:31:12;;;;;;;3.60;3.30;;;;;;;;;;6231986;28;20300;-71
2023/11/16 09:34:16;;;;;;;3.97;3.27;;;;;;;;;;6185342;28;20440;-72
2023/11/16 09:37:22;;;;;;;3.63;3.37;;;;;;;;;;6183325;28;20295;-71
2023/11/16 09:40:30;;;;;;;3.70;3.50;;;;;;;;;;6182916;28;20294;-71
2023/11/16 09:43:37;;;;;;;4.30;3.90;;;;;;;;;;6183004;28;20295;-72
2023/11/16 09:46:44;;;;;;;3.67;3.37;;;;;;;;;;6183758;28;20286;-72
2023/11/16 09:49:48;;;;;;;3.60;3.40;;;;;;;;;;6183152;28;20303;-71
2023/11/16 09:52:55;;;;;;;3.80;3.53;;;;;;;;;;6186076;28;20300;-71
2023/11/16 09:56:00;;;;;;;7.77;3.77;;;;;;;;;;6207846;28;20302;-71
2023/11/16 09:59:13;;;;;;;4.53;3.23;;;;;;;;;;6192630;28;20304;-72
2023/11/16 10:02:18;;;;;;;4.93;3.07;;;;;;;;;;6183505;28;20297;-72
2023/11/16 10:05:23;;;;;;;3.50;3.33;;;;;;;;;;6205937;28;20306;-73
2023/11/16 10:08:29;;;;;;;3.47;3.27;;;;;;;;;;6206728;28;20287;-72
2023/11/16 10:11:33;;;;;;;3.87;3.60;;;;;;;;;;6206879;28;20564;-71
2023/11/16 10:14:40;;;;;;;3.60;3.40;;;;;;;;;;6206685;28;20654;-73
2023/11/16 10:17:44;;;;;;;3.87;3.47;;;;;;;;;;6182546;28;20291;-71
2023/11/16 10:20:49;;;;;;;3.63;3.40;;;;;;;;;;6206750;28;20301;-71
2023/11/16 10:23:57;;;;;;;5.77;3.97;;;;;;;;;;6181289;28;20481;-71
2023/11/16 10:27:01;;;;;;;3.63;3.43;;;;;;;;;;6183031;28;20326;-72
2023/11/16 10:30:06;;;;;;;4.23;3.93;;;;;;;;;;6182362;28;20408;-72
2023/11/16 10:33:11;;;;;;;4.23;3.87;;;;;;;;;;6182083;28;20844;-72
2023/11/16 10:36:15;;;;;;;3.90;3.60;;;;;;;;;;6182150;28;20307;-72
2023/11/16 10:39:20;;;;;;;3.90;3.70;;;;;;;;;;6182412;28;20478;-71
2023/11/16 10:42:26;;;;;;;7.17;4.00;;;;;;;;;;6182428;28;20592;-72
2023/11/16 10:45:30;;;;;;;6.40;3.77;;;;;;;;;;6187548;28;20303;-73
2023/11/16 10:48:34;;;;;;;4.37;3.77;;;;;;;;;;6180955;28;20297;-73
2023/11/16 10:51:38;;;;;;;4.00;3.80;;;;;;;;;;6182010;28;20304;-73
2023/11/16 10:54:46;;;;;;;3.03;2.93;;;;;;;;;;6181550;28;20300;-73
2023/11/16 10:57:50;;;;;;;3.37;3.20;;;;;;;;;;6180072;28;20795;-71
2023/11/16 11:00:55;;;;;;;4.47;3.57;;;;;;;;;;6182291;28;20295;-71
2023/11/16 11:04:01;;;;;;;3.50;3.30;;;;;;;;;;6181593;28;20323;-73
2023/11/16 11:07:09;;;;;;;4.83;4.23;;;;;;;;;;6181783;28;20840;-72
2023/11/16 11:10:17;;;;;;;7.33;3.87;;;;;;;;;;6181366;28;20298;-73
2023/11/16 11:13:26;;;;;;;4.10;3.83;;;;;;;;;;6181371;28;20312;-71
2023/11/16 11:16:30;;;;;;;6.77;3.73;;;;;;;;;;6192521;28;20303;-72
2023/11/16 11:19:36;;;;;;;4.00;3.60;;;;;;;;;;6206649;28;20300;-71
2023/11/16 11:22:42;;;;;;;3.73;3.50;;;;;;;;;;6203884;28;20302;-72
2023/11/16 11:25:48;;;;;;;3.50;3.30;;;;;;;;;;6199039;28;20315;-72
2023/11/16 11:28:52;;;;;;;4.07;3.77;;;;;;;;;;6178667;28;20243;-74
2023/11/16 11:32:03;;;;;;;4.77;4.47;;;;;;;;;;6205713;28;20294;-72
2023/11/16 11:35:11;;;;;;;6.37;4.23;;;;;;;;;;6205549;28;20302;-74
2023/11/16 11:38:26;;;;;;;5.43;4.43;;;;;;;;;;6205192;28;20303;-72
2023/11/16 11:41:32;;;;;;;4.50;4.00;;;;;;;;;;6205715;28;20366;-71
2023/11/16 11:44:35;;;;;;;4.13;3.87;;;;;;;;;;6204692;28;20322;-72
2023/11/16 11:47:40;;;;;;;4.60;4.20;;;;;;;;;;6205237;28;20292;-73
2023/11/16 11:50:43;;;;;;;4.57;4.17;;;;;;;;;;6205114;28;20301;-71
2023/11/16 11:53:47;;;;;;;6.90;5.30;;;;;;;;;;6213308;28;20304;-73
2023/11/16 11:56:54;;;;;;;4.53;4.10;;;;;;;;;;6222986;28;20303;-71
2023/11/16 11:59:58;;;;;;;6.80;5.03;;;;;;;;;;6205155;28;20298;-72
2023/11/16 12:03:03;;;;;;;5.20;4.43;;;;;;;;;;6209311;28;20306;-73
2023/11/16 12:06:09;;;;;;;5.47;4.33;;;;;;;;;;6209960;28;20302;-71
2023/11/16 12:09:13;;;;;;;4.33;4.03;;;;;;;;;;6209039;28;20296;-72
2023/11/16 12:12:19;;;;;;;4.40;4.03;;;;;;;;;;6186766;28;20310;-72
2023/11/16 12:15:23;;;;;;;4.77;4.47;;;;;;;;;;6184746;28;20308;-72
2023/11/16 12:18:28;;;;;;;4.20;3.93;;;;;;;;;;6184711;28;20286;-72
2023/11/16 12:21:32;;;;;;;4.77;4.37;;;;;;;;;;6185672;28;20589;-71
2023/11/16 12:24:36;;;;;;;4.37;4.10;;;;;;;;;;6185235;28;20286;-72
2023/11/16 12:27:42;;;;;;;4.13;3.83;;;;;;;;;;6184008;28;20462;-72
2023/11/16 12:30:49;;;;;;;4.77;4.37;;;;;;;;;;6184082;28;20303;-71
2023/11/16 12:33:53;;;;;;;3.77;3.57;;;;;;;;;;6184479;28;20295;-71
2023/11/16 12:36:58;;;;;;;3.57;3.40;;;;;;;;;;6185108;28;20489;-71
2023/11/16 12:40:09;;;;;;;3.47;3.27;;;;;;;;;;6184736;28;20302;-72
2023/11/16 12:43:14;;;;;;;4.37;4.03;;;;;;;;;;6184386;28;20294;-73
2023/11/16 12:46:19;;;;;;;4.50;4.10;;;;;;;;;;6182989;28;20243;-71
2023/11/16 12:49:23;;;;;;;3.87;3.67;;;;;;;;;;6183193;28;20295;-71
2023/11/16 12:52:27;;;;;;;3.67;3.47;;;;;;;;;;6183104;28;20295;-72
2023/11/16 12:55:31;;;;;;;3.70;3.50;;;;;;;;;;6184412;28;20304;-73
2023/11/16 12:58:37;;;;;;;4.13;3.70;;;;;;;;;;6182490;28;20300;-72
2023/11/16 13:01:41;;;;;;;3.80;3.60;;;;;;;;;;6184316;28;20310;-72
2023/11/16 13:04:45;;;;;;;5.30;4.10;;;;;;;;;;6183355;28;20307;-72
2023/11/16 13:07:49;;;;;;;3.90;3.60;;;;;;;;;;6184093;28;20303;-72
2023/11/16 13:10:52;;;;;;;4.30;4.00;;;;;;;;;;6194587;28;20293;-72
2023/11/16 13:13:58;;;;;;;5.20;3.60;;;;;;;;;;6207581;28;20286;-72
2023/11/16 13:17:03;;;;;;;4.10;3.80;;;;;;;;;;6208400;28;20429;-72
2023/11/16 13:20:08;;;;;;;4.30;3.97;;;;;;;;;;6207825;28;20610;-72
2023/11/16 13:23:13;;;;;;;4.17;3.87;;;;;;;;;;6207959;28;20320;-72
2023/11/16 13:26:19;;;;;;;4.30;3.93;;;;;;;;;;6207924;28;20390;-72
2023/11/16 13:29:24;;;;;;;4.30;4.00;;;;;;;;;;6207203;28;20302;-72
2023/11/16 13:32:28;;;;;;;3.40;3.20;;;;;;;;;;6207982;28;20289;-72
2023/11/16 13:35:32;;;;;;;5.67;3.97;;;;;;;;;;6207034;28;20803;-72
2023/11/16 13:38:36;;;;;;;4.03;3.73;;;;;;;;;;6206569;28;20320;-72
2023/11/16 13:41:40;;;;;;;4.00;3.70;;;;;;;;;;6183879;28;20294;-72
2023/11/16 13:44:45;;;;;;;3.77;3.47;;;;;;;;;;6183009;28;20702;-71
2023/11/16 13:47:49;;;;;;;4.10;3.80;;;;;;;;;;6182549;28;20301;-70
2023/11/16 13:50:53;;;;;;;4.17;3.87;;;;;;;;;;6183142;28;20293;-70
2023/11/16 13:53:57;;;;;;;4.30;3.90;;;;;;;;;;6182892;28;20287;-71
2023/11/16 13:57:01;;;;;;;4.90;3.83;;;;;;;;;;6183266;28;20600;-71
2023/11/16 14:00:09;;;;;;;4.70;4.00;;;;;;;;;;6181285;28;20303;-71
2023/11/16 14:03:12;;;;;;;5.63;3.70;;;;;;;;;;6182793;28;20640;-72
2023/11/16 14:06:16;;;;;;;3.43;3.33;;;;;;;;;;6182747;28;20517;-71
2023/11/16 14:09:21;;;;;;;3.50;3.30;;;;;;;;;;6182603;28;20294;-71
2023/11/16 14:12:26;;;;;;;5.47;4.00;;;;;;;;;;6206055;28;20305;-72
2023/11/16 14:15:32;;;;;;;7.27;3.70;;;;;;;;;;6206393;28;20306;-71
2023/11/16 14:18:36;;;;;;;4.43;4.00;;;;;;;;;;6206248;28;20306;-71
2023/11/16 14:21:40;;;;;;;3.80;3.50;;;;;;;;;;6206286;28;20304;-73
2023/11/16 14:24:46;;;;;;;3.77;3.50;;;;;;;;;;6206245;28;20577;-72
2023/11/16 14:27:50;;;;;;;3.43;3.33;;;;;;;;;;6205604;28;20309;-71
2023/11/16 14:30:55;;;;;;;3.50;3.30;;;;;;;;;;6206274;28;20479;-72
2023/11/16 14:33:59;;;;;;;4.00;3.70;;;;;;;;;;6205801;28;20290;-72
2023/11/16 14:37:06;;;;;;;3.70;3.43;;;;;;;;;;6212233;28;20566;-71
2023/11/16 14:40:12;;;;;;;3.87;3.57;;;;;;;;;;6205638;28;20304;-71
2023/11/16 14:43:16;;;;;;;3.67;3.37;;;;;;;;;;6204381;28;20320;-71
2023/11/16 14:46:21;;;;;;;3.83;3.63;;;;;;;;;;6206777;28;20309;-71
2023/11/16 14:49:25;;;;;;;3.83;3.57;;;;;;;;;;6185571;28;20358;-71
2023/11/16 14:52:29;;;;;;;3.90;3.67;;;;;;;;;;6206534;28;20298;-71
2023/11/16 14:55:33;;;;;;;3.57;3.27;;;;;;;;;;6205923;28;20498;-72
2023/11/16 14:58:37;;;;;;;4.00;3.70;;;;;;;;;;6204208;28;20303;-72
2023/11/16 15:01:42;;;;;;;4.63;3.90;;;;;;;;;;6206208;28;20305;-75
2023/11/16 15:04:46;;;;;;;4.07;3.87;;;;;;;;;;6205632;28;20288;-71
2023/11/16 15:07:50;;;;;;;4.37;4.07;;;;;;;;;;6206050;28;20306;-72
2023/11/16 15:10:54;;;;;;;4.47;3.80;;;;;;;;;;6193594;28;20311;-72
2023/11/16 15:13:58;;;;;;;4.10;3.90;;;;;;;;;;6181559;28;20301;-72
2023/11/16 15:17:06;;;;;;;4.30;4.00;;;;;;;;;;6181657;28;20299;-72
2023/11/16 15:20:11;;;;;;;4.37;4.07;;;;;;;;;;6181470;28;20294;-73
2023/11/16 15:23:29;;;;;;;5.27;3.87;;;;;;;;;;6180052;28;20331;-72
2023/11/16 15:26:33;;;;;;;4.40;4.00;;;;;;;;;;6181678;28;20612;-73
2023/11/16 15:29:52;;;;;;;4.87;4.17;;;;;;;;;;6181121;28;20315;-72
2023/11/16 15:32:57;;;;;;;5.10;4.70;;;;;;;;;;6180831;28;20297;-70
2023/11/16 15:36:01;;;;;;;6.00;3.67;;;;;;;;;;6185240;28;20314;-72
2023/11/16 15:39:10;;;;;;;3.97;3.70;;;;;;;;;;6185683;28;20456;-73
2023/11/16 15:42:13;;;;;;;4.40;4.10;;;;;;;;;;6186022;28;20339;-72
2023/11/16 15:45:18;;;;;;;4.63;4.27;;;;;;;;;;6185480;28;20298;-73
2023/11/16 15:48:23;;;;;;;7.10;4.30;;;;;;;;;;6185380;28;20313;-72
2023/11/16 15:51:29;;;;;;;4.13;3.93;;;;;;;;;;6186367;28;20307;-71
2023/11/16 15:54:33;;;;;;;4.57;4.27;;;;;;;;;;6185560;28;20301;-69
2023/11/16 15:57:37;;;;;;;4.40;4.20;;;;;;;;;;6184087;28;20616;-74
2023/11/16 16:00:41;;;;;;;4.57;4.17;;;;;;;;;;6189698;28;20570;-72
2023/11/16 16:03:48;;;;;;;4.43;4.17;;;;;;;;;;6209036;28;20299;-70
2023/11/16 16:06:52;;;;;;;5.17;4.77;;;;;;;;;;6210282;28;20299;-72
2023/11/16 16:09:56;;;;;;;4.80;4.23;;;;;;;;;;6209442;28;20563;-72
2023/11/16 16:13:00;;;;;;;5.70;4.20;;;;;;;;;;6234155;28;20366;-71
2023/11/16 16:16:05;;;;;;;7.60;5.30;;;;;;;;;;6234566;28;20290;-73
2023/11/16 16:19:11;;;;;;;4.70;4.37;;;;;;;;;;6233650;28;20361;-74
2023/11/16 16:22:15;;;;;;;5.10;4.60;;;;;;;;;;6233332;28;20301;-71
2023/11/16 16:25:19;;;;;;;4.73;4.30;;;;;;;;;;6233225;28;20293;-72
2023/11/16 16:28:23;;;;;;;6.43;5.03;;;;;;;;;;6233675;28;20314;-72
2023/11/16 16:31:27;;;;;;;5.50;4.97;;;;;;;;;;6234322;28;20304;-71
2023/11/16 16:34:32;;;;;;;4.70;4.40;;;;;;;;;;6216201;28;20488;-73
2023/11/16 16:37:36;;;;;;;4.50;4.23;;;;;;;;;;6232750;28;20310;-73
2023/11/16 16:40:40;;;;;;;4.57;4.17;;;;;;;;;;6233292;28;20301;-73
2023/11/16 16:43:44;;;;;;;4.20;3.90;;;;;;;;;;6233304;28;20290;-72
2023/11/16 16:46:47;;;;;;;6.33;4.60;;;;;;;;;;6228891;28;20306;-73
2023/11/16 16:49:53;;;;;;;4.83;4.43;;;;;;;;;;6208437;28;20319;-72
2023/11/16 16:52:58;;;;;;;4.30;4.00;;;;;;;;;;6208108;28;20394;-71
2023/11/16 16:56:02;;;;;;;4.97;4.20;;;;;;;;;;6184262;28;20301;-72
2023/11/16 16:59:06;;;;;;;5.43;4.93;;;;;;;;;;6206384;28;20320;-71
2023/11/16 17:02:10;;;;;;;6.80;4.67;;;;;;;;;;6227216;28;20297;-72
2023/11/16 17:05:17;;;;;;;8.50;4.87;;;;;;;;;;6205542;28;20242;-70
2023/11/16 17:08:20;;;;;;;4.23;3.93;;;;;;;;;;6208022;28;20331;-72
2023/11/16 17:11:24;;;;;;;4.50;4.20;;;;;;;;;;6204051;28;20298;-72
2023/11/16 17:14:28;;;;;;;4.80;4.40;;;;;;;;;;6207713;28;20308;-72
2023/11/16 17:17:32;;;;;;;4.40;4.17;;;;;;;;;;6207703;28;20316;-71
2023/11/16 17:20:37;;;;;;;4.57;3.73;;;;;;;;;;6183184;28;20306;-74
2023/11/16 17:23:42;;;;;;;4.47;4.07;;;;;;;;;;6179732;28;20293;-71
2023/11/16 17:26:46;;;;;;;4.53;4.13;;;;;;;;;;6195021;28;20352;-71
2023/11/16 17:29:50;;;;;;;6.17;4.70;;;;;;;;;;6207404;28;20532;-72
2023/11/16 17:32:53;;;;;;;4.27;3.97;;;;;;;;;;6207011;28;20300;-72
2023/11/16 17:36:01;;;;;;;4.33;4.03;;;;;;;;;;6207739;28;20300;-71
2023/11/16 17:39:06;;;;;;;3.90;3.70;;;;;;;;;;6206519;28;20306;-73
2023/11/16 17:42:15;;;;;;;3.90;3.70;;;;;;;;;;6207648;28;20326;-67
2023/11/16 17:45:22;;;;;;;3.27;3.07;;;;;;;;;;6206781;28;20324;-71
2023/11/16 17:48:26;;;;;;;3.77;3.47;;;;;;;;;;6183671;28;20310;-71
2023/11/16 17:51:31;;;;;;;5.33;3.10;;;;;;;;;;6174726;28;20570;-73
2023/11/16 17:54:35;;;;;;;3.37;3.27;;;;;;;;;;6180971;28;20293;-68
2023/11/16 17:57:40;;;;;;;3.80;3.40;;;;;;;;;;6171706;28;20293;-71
2023/11/16 18:00:44;;;;;;;3.60;3.40;;;;;;;;;;6152319;28;20320;-70
2023/11/16 18:03:48;;;;;;;3.47;3.27;;;;;;;;;;6191074;28;20309;-71
2023/11/16 18:06:54;;;;;;;3.10;2.90;;;;;;;;;;6207391;28;20308;-69
2023/11/16 18:10:04;;;;;;;2.97;2.63;;;;;;;;;;6210727;28;20296;-70
2023/11/16 18:13:09;;;;;;;2.70;2.60;;;;;;;;;;6216061;28;20313;-69
2023/11/16 18:16:13;;;;;;;3.33;3.10;;;;;;;;;;6207804;28;20305;-71
2023/11/16 18:19:17;;;;;;;2.60;2.50;;;;;;;;;;6207038;28;20303;-69
2023/11/16 18:22:22;;;;;;;2.90;2.80;;;;;;;;;;6203873;28;20309;-71
2023/11/16 18:25:26;;;;;;;2.80;2.70;;;;;;;;;;6182526;28;20464;-72
2023/11/16 18:28:31;;;;;;;2.63;2.53;;;;;;;;;;6230985;28;20300;-71